Time;durP1;ratioP1;P1;durP2;ratioP2;P2;SDS_P1;SDS_P2;PMS_P1;PMS_P2;Temp;Humidity;BMP_temperature;BMP_pressure;BME280_temperature;BME280_humidity;BME280_pressure;Samples;Min_cycle;Max_cycle;Signal;HPM_P1;HPM_P2
2022/02/19 00:00:17;;;;;;;4.93;1.23;;;;;;;6.22;66.77;96840.38;10328682;28;20064;-64
2022/02/19 00:05:24;;;;;;;4.50;1.40;;;;;;;6.30;63.04;96832.31;10326638;28;20065;-65
2022/02/19 00:10:28;;;;;;;4.50;1.20;;;;;;;6.10;63.01;96863.97;10347435;28;20046;-64
2022/02/19 00:15:31;;;;;;;5.53;1.50;;;;;;;6.13;59.81;96853.78;10351880;28;20049;-62
2022/02/19 00:20:35;;;;;;;7.88;1.30;;;;;;;6.06;59.01;96965.06;10350563;28;20503;-65
2022/02/19 00:25:38;;;;;;;4.43;1.23;;;;;;;6.05;58.88;96842.25;10350387;28;20056;-64
2022/02/19 00:30:42;;;;;;;5.75;1.38;;;;;;;6.03;56.69;96847.78;10351070;28;20092;-63
2022/02/19 00:35:47;;;;;;;3.17;1.02;;;;;;;5.83;59.46;96852.66;10352721;28;20066;-63
2022/02/19 00:40:51;;;;;;;6.25;1.40;;;;;;;5.90;58.91;96863.50;10351153;28;20053;-62
2022/02/19 00:45:55;;;;;;;4.70;1.58;;;;;;;5.85;60.47;96883.53;10339321;28;20081;-63
2022/02/19 00:51:01;;;;;;;5.30;1.40;;;;;;;5.80;62.55;96875.22;10314972;28;20140;-64
2022/02/19 00:56:04;;;;;;;5.53;1.40;;;;;;;5.61;66.14;96873.72;10340138;28;20082;-64
2022/02/19 01:01:08;;;;;;;6.22;1.67;;;;;;;5.66;65.26;96878.56;10326096;28;20054;-61
2022/02/19 01:06:35;;;;;;;3.83;1.30;;;;;;;5.64;65.19;96908.13;10296792;28;20064;-64
2022/02/19 01:11:40;;;;;;;4.28;1.50;;;;;;;5.64;67.51;96901.94;10330057;28;20038;-63
2022/02/19 01:16:43;;;;;;;7.30;1.70;;;;;;;5.65;68.99;96891.06;10320810;28;20053;-63
2022/02/19 01:21:47;;;;;;;5.75;1.42;;;;;;;5.65;71.91;96904.41;10323829;28;20046;-61
2022/02/19 01:26:51;;;;;;;3.95;1.30;;;;;;;5.67;68.76;96913.09;10337689;28;20037;-63
2022/02/19 01:31:54;;;;;;;3.38;1.50;;;;;;;5.75;70.34;96917.63;10328195;28;20058;-63
2022/02/19 01:36:59;;;;;;;3.20;1.10;;;;;;;5.61;80.51;96910.28;10346435;28;20038;-63
2022/02/19 01:42:05;;;;;;;3.35;1.10;;;;;;;5.61;75.21;96956.53;10321801;28;20105;-63
2022/02/19 01:47:09;;;;;;;4.72;1.50;;;;;;;5.37;86.64;96939.47;10345379;28;20042;-64
2022/02/19 01:52:16;;;;;;;6.05;1.52;;;;;;;5.36;87.96;96944.97;10323775;28;20564;-63
2022/02/19 01:57:19;;;;;;;9.48;1.52;;;;;;;5.20;96.75;96937.78;10345512;28;20050;-63
2022/02/19 02:02:45;;;;;;;4.93;1.42;;;;;;;5.17;97.02;96957.63;10320918;28;20057;-63
2022/02/19 02:08:09;;;;;;;;;;;;;;;5.25;87.74;96989.69;10348492;28;20133;-64
2022/02/19 02:13:12;;;;;;;4.60;1.20;;;;;;;5.28;89.05;96983.19;10333347;28;20024;-63
2022/02/19 02:18:15;;;;;;;8.93;1.40;;;;;;;5.25;93.36;96962.16;10336736;28;20046;-62
2022/02/19 02:23:21;;;;;;;5.13;1.75;;;;;;;5.09;97.84;97024.34;10328809;28;20050;-64
2022/02/19 02:28:25;;;;;;;5.68;1.50;;;;;;;5.07;94.86;97021.00;10333920;28;20038;-63
2022/02/19 02:33:28;;;;;;;4.97;1.17;;;;;;;4.85;92.28;97060.59;10331654;28;20137;-63
2022/02/19 02:38:40;;;;;;;2.78;0.93;;;;;;;4.90;82.19;97025.44;10369435;28;20061;-63
2022/02/19 02:43:43;;;;;;;3.50;0.90;;;;;;;4.74;82.95;97031.53;10356714;28;20061;-62
2022/02/19 02:48:46;;;;;;;3.25;1.05;;;;;;;4.77;74.83;97023.19;10327244;28;20503;-63
2022/02/19 02:53:52;;;;;;;1.42;0.65;;;;;;;4.76;70.93;97048.22;10320921;28;20058;-63
2022/02/19 02:58:55;;;;;;;3.42;0.73;;;;;;;4.69;70.30;97074.69;10347349;28;20136;-60
2022/02/19 03:03:58;;;;;;;2.65;0.80;;;;;;;4.69;69.04;97052.50;10315800;28;20125;-63
2022/02/19 03:09:03;;;;;;;3.38;0.80;;;;;;;4.66;69.29;97092.81;10324667;28;20053;-58
2022/02/19 03:14:09;;;;;;;2.95;0.95;;;;;;;4.56;70.00;97075.09;10327528;28;20054;-59
2022/02/19 03:19:12;;;;;;;2.15;0.80;;;;;;;4.66;70.04;97139.03;10323731;28;20046;-62
2022/02/19 03:24:18;;;;;;;3.40;0.88;;;;;;;4.54;72.26;97118.94;10341667;28;20034;-62
2022/02/19 03:29:22;;;;;;;2.47;1.08;;;;;;;4.63;67.78;97123.31;10329764;28;20050;-62
2022/02/19 03:34:28;;;;;;;4.30;1.00;;;;;;;4.55;71.05;97121.44;10346255;28;20145;-61
2022/02/19 03:39:34;;;;;;;1.20;0.63;;;;;;;4.53;71.88;97133.25;10334549;28;20072;-60
2022/02/19 03:44:37;;;;;;;3.78;0.90;;;;;;;4.54;69.51;97188.28;10355517;28;20066;-61
2022/02/19 03:49:48;;;;;;;2.15;0.85;;;;;;;4.36;76.76;97154.44;10330191;28;20053;-61
2022/02/19 03:54:52;;;;;;;3.33;1.00;;;;;;;4.39;74.08;97166.66;10333139;28;20108;-59
2022/02/19 03:59:56;;;;;;;4.25;0.80;;;;;;;4.33;75.64;97168.09;10331000;28;20053;-59
2022/02/19 04:04:59;;;;;;;2.90;1.00;;;;;;;4.45;71.00;97169.53;10332361;28;20049;-61
2022/02/19 04:10:05;;;;;;;1.55;0.77;;;;;;;4.39;73.10;97206.66;10362681;28;20043;-62
2022/02/19 04:15:12;;;;;;;3.00;1.00;;;;;;;4.38;77.36;97202.31;10340691;28;20410;-62
2022/02/19 04:20:21;;;;;;;4.00;1.20;;;;;;;4.24;85.51;97211.66;10333878;28;20058;-60
2022/02/19 04:25:26;;;;;;;2.40;0.80;;;;;;;4.25;89.15;97232.84;10356168;28;20453;-61
2022/02/19 04:30:32;;;;;;;2.67;0.88;;;;;;;4.26;90.14;97231.84;10364797;28;20076;-59
2022/02/19 04:35:39;;;;;;;3.88;1.00;;;;;;;4.23;89.98;97232.16;10339144;28;20053;-60
2022/02/19 04:40:44;;;;;;;5.00;1.20;;;;;;;4.15;92.81;97269.38;10359889;28;20054;-61
2022/02/19 04:45:48;;;;;;;2.38;0.77;;;;;;;4.05;98.13;97274.75;10320694;28;20046;-61
2022/02/19 04:50:51;;;;;;;4.00;1.15;;;;;;;3.94;100.00;97273.13;10304874;28;20053;-59
2022/02/19 04:55:57;;;;;;;4.28;1.00;;;;;;;3.94;99.89;97262.47;10342206;28;20126;-59
2022/02/19 05:01:00;;;;;;;2.95;0.80;;;;;;;3.94;100.00;97273.13;10312577;28;20050;-62
2022/02/19 05:06:23;;;;;;;3.83;1.02;;;;;;;3.99;97.98;97249.53;10334355;28;20139;-60
2022/02/19 05:11:34;;;;;;;2.88;1.10;;;;;;;4.07;94.45;97283.44;10318293;28;20140;-62
2022/02/19 05:16:39;;;;;;;2.22;0.80;;;;;;;4.10;91.92;97276.97;10327420;28;20074;-63
2022/02/19 05:21:47;;;;;;;3.42;0.90;;;;;;;4.16;90.25;97295.06;10320202;28;20060;-61
2022/02/19 05:26:52;;;;;;;3.75;1.10;;;;;;;4.23;87.00;97354.78;10321736;28;20048;-63
2022/02/19 05:31:59;;;;;;;4.75;1.10;;;;;;;4.13;90.04;97340.66;10320749;28;20054;-63
2022/02/19 05:37:06;;;;;;;2.92;0.90;;;;;;;4.09;91.84;97356.09;10361975;28;20046;-63
2022/02/19 05:42:18;;;;;;;2.75;0.90;;;;;;;4.25;85.13;97355.47;10346173;28;20046;-61
2022/02/19 05:47:26;;;;;;;3.10;0.95;;;;;;;4.08;93.65;97367.75;10327364;28;20131;-62
2022/02/19 05:53:05;;;;;;;3.13;1.00;;;;;;;4.13;89.60;97394.78;10333334;28;20201;-63
2022/02/19 05:58:13;;;;;;;2.38;0.90;;;;;;;4.02;95.32;97381.66;10329027;28;20038;-62
2022/02/19 06:03:26;;;;;;;7.97;1.25;;;;;;;3.98;100.00;97402.41;10335328;28;20046;-62
2022/02/19 06:08:29;;;;;;;5.30;1.02;;;;;;;3.94;100.00;97422.34;10346085;28;20049;-62
2022/02/19 06:13:34;;;;;;;1.92;0.80;;;;;;;3.96;100.00;97455.03;10344679;28;20072;-62
2022/02/19 06:18:39;;;;;;;2.63;0.90;;;;;;;3.87;100.00;97495.84;10361117;28;20054;-63
2022/02/19 06:23:42;;;;;;;3.17;0.90;;;;;;;3.76;98.82;97480.00;10335657;28;20109;-62
2022/02/19 06:28:47;;;;;;;3.75;0.85;;;;;;;3.76;100.00;97498.66;10366652;28;20388;-62
2022/02/19 06:33:52;;;;;;;3.63;0.73;;;;;;;3.68;100.00;97513.53;10337714;28;20494;-63
2022/02/19 06:38:55;;;;;;;2.92;0.80;;;;;;;3.46;100.00;97535.13;10339998;28;20050;-62
2022/02/19 06:44:06;;;;;;;2.67;0.70;;;;;;;3.33;100.00;97520.25;10311910;28;20138;-62
2022/02/19 06:49:10;;;;;;;1.42;0.60;;;;;;;3.30;100.00;97516.97;10309391;28;20160;-63
2022/02/19 06:54:19;;;;;;;3.72;0.95;;;;;;;3.36;100.00;97529.75;10285445;28;20046;-63
2022/02/19 06:59:24;;;;;;;2.67;0.77;;;;;;;3.43;100.00;97544.19;10286118;28;20069;-62
2022/02/19 07:04:30;;;;;;;1.42;0.60;;;;;;;3.53;100.00;97570.84;10285201;28;20145;-63
2022/02/19 07:09:56;;;;;;;4.63;0.95;;;;;;;3.52;100.00;97606.44;10286857;28;20619;-63
2022/02/19 07:15:01;;;;;;;2.80;0.75;;;;;;;3.48;100.00;97581.06;10309035;28;20129;-63
2022/02/19 07:20:29;;;;;;;2.97;0.82;;;;;;;3.69;100.00;97587.16;10323823;28;20182;-63
2022/02/19 07:25:34;;;;;;;2.58;0.80;;;;;;;3.74;100.00;97647.13;10307150;28;20046;-57
2022/02/19 07:30:39;;;;;;;2.17;0.85;;;;;;;3.88;95.77;97630.75;10303140;28;20070;-54
2022/02/19 07:35:45;;;;;;;2.95;0.73;;;;;;;3.96;93.94;97627.41;10306588;28;20126;-61
2022/02/19 07:40:49;;;;;;;2.22;0.70;;;;;;;3.94;99.61;97645.34;10308636;28;20410;-59
2022/02/19 07:46:00;;;;;;;2.40;0.63;;;;;;;4.04;90.69;97688.03;10303705;28;20578;-56
2022/02/19 08:02:30;;;;;;;1.45;0.63;;;;;;;4.11;89.86;97729.13;10308993;28;20054;-63
2022/02/19 08:07:35;;;;;;;3.22;0.70;;;;;;;4.17;86.77;97723.25;10308371;28;20134;-64
2022/02/19 08:12:38;;;;;;;3.03;0.70;;;;;;;4.24;88.99;97715.53;10310941;28;20059;-63
2022/02/19 08:17:43;;;;;;;2.95;0.85;;;;;;;4.26;86.21;97751.75;10314109;28;20043;-63
2022/02/19 08:22:46;;;;;;;3.70;0.77;;;;;;;4.28;86.58;97720.47;10312816;28;20554;-61
2022/02/19 08:27:49;;;;;;;3.90;0.90;;;;;;;4.35;88.56;97717.22;10312806;28;20118;-59
2022/02/19 08:32:54;;;;;;;2.25;0.70;;;;;;;4.43;82.46;97742.22;10315798;28;20046;-59
2022/02/19 08:37:57;;;;;;;2.95;0.85;;;;;;;4.45;80.03;97739.41;10308648;28;20448;-61
2022/02/19 08:43:00;;;;;;;4.10;1.00;;;;;;;4.51;82.81;97741.53;10290171;28;20094;-59
2022/02/19 08:48:05;;;;;;;2.65;0.90;;;;;;;4.61;85.38;97755.72;10282993;28;20053;-61
2022/02/19 08:53:09;;;;;;;2.85;0.88;;;;;;;4.69;79.77;97768.34;10300351;28;20101;-61
2022/02/19 08:58:12;;;;;;;1.77;0.80;;;;;;;4.65;75.39;97790.09;10366145;23;20061;-78
2022/02/19 09:03:18;;;;;;;2.55;0.80;;;;;;;4.73;79.87;97838.28;10391001;28;20107;-76
2022/02/19 09:08:21;;;;;;;3.03;1.08;;;;;;;4.94;91.99;97798.97;10371276;28;20052;-79
2022/02/19 09:13:26;;;;;;;5.10;1.17;;;;;;;4.73;81.16;97800.94;10372638;28;20077;-80
2022/02/19 09:18:31;;;;;;;4.57;1.10;;;;;;;4.71;93.72;97819.72;10363216;28;20565;-80
2022/02/19 09:23:34;;;;;;;2.13;0.82;;;;;;;4.60;82.20;97828.72;10378201;28;20126;-79
2022/02/19 09:28:39;;;;;;;3.72;1.10;;;;;;;4.85;88.29;97847.88;10349152;28;20061;-78
2022/02/19 09:33:45;;;;;;;4.68;1.02;;;;;;;4.94;86.24;97847.00;10353284;28;20093;-78
2022/02/19 09:38:49;;;;;;;3.60;1.00;;;;;;;4.78;74.51;97852.91;10352364;28;20050;-77
2022/02/19 09:43:52;;;;;;;4.10;1.00;;;;;;;5.00;79.85;97864.28;10355457;28;20046;-79
2022/02/19 09:48:58;;;;;;;3.85;1.00;;;;;;;5.15;75.58;97861.22;10352327;28;20073;-80
2022/02/19 09:54:01;;;;;;;4.38;1.40;;;;;;;5.26;78.02;97874.44;10364217;28;20065;-80
2022/02/19 09:59:08;;;;;;;4.35;1.05;;;;;;;5.23;76.80;97853.34;10352282;28;20045;-79
2022/02/19 10:04:12;;;;;;;5.50;1.10;;;;;;;5.32;75.38;97886.38;10357463;28;20169;-78
2022/02/19 10:09:18;;;;;;;4.25;1.30;;;;;;;5.25;73.40;97913.63;10384962;28;20081;-79
2022/02/19 10:14:24;;;;;;;3.78;1.13;;;;;;;5.19;79.33;97919.53;10365529;28;20046;-79
2022/02/19 10:19:28;;;;;;;5.72;1.17;;;;;;;5.19;73.75;97948.91;10352337;28;21478;-79
2022/02/19 10:24:36;;;;;;;4.75;1.00;;;;;;;5.32;75.98;97953.97;10353886;28;20141;-79
2022/02/19 10:29:51;;;;;;;2.83;1.08;;;;;;;5.45;74.06;97964.41;10365161;28;20466;-79
2022/02/19 10:35:02;;;;;;;2.95;0.90;;;;;;;5.42;72.22;97956.66;10372416;28;20046;-80
2022/02/19 10:40:07;;;;;;;3.83;1.02;;;;;;;5.50;73.08;97947.94;10342914;28;20058;-80
2022/02/19 10:45:12;;;;;;;2.50;0.88;;;;;;;5.54;69.20;97984.06;10337842;28;20054;-80
2022/02/19 10:50:19;;;;;;;5.07;1.00;;;;;;;5.70;68.49;97976.34;10345559;28;20104;-80
2022/02/19 10:55:42;;;;;;;2.50;0.80;;;;;;;5.78;67.09;97985.47;10339063;28;20053;-77
2022/02/19 11:00:46;;;;;;;3.22;0.70;;;;;;;5.57;68.95;97974.97;10349485;28;20046;-79
2022/02/19 11:05:51;;;;;;;5.63;1.08;;;;;;;5.68;74.35;97996.19;10350912;28;20077;-78
2022/02/19 11:10:56;;;;;;;4.70;1.23;;;;;;;5.78;69.42;97997.03;10351043;28;20078;-78
2022/02/19 11:16:00;;;;;;;3.92;1.55;;;;;;;5.46;66.87;98022.19;10355759;28;20046;-78
2022/02/19 11:21:06;;;;;;;3.67;1.00;;;;;;;5.43;64.07;98059.00;10357160;28;20053;-80
2022/02/19 11:26:09;;;;;;;3.05;0.82;;;;;;;5.45;64.56;98006.28;10353952;28;20062;-80
2022/02/19 11:31:14;;;;;;;3.78;0.80;;;;;;;5.55;67.59;98033.84;10353777;28;20046;-81
2022/02/19 11:36:25;;;;;;;3.22;0.85;;;;;;;5.70;65.95;98028.97;10361365;28;20116;-79
2022/02/19 11:41:35;;;;;;;2.80;0.80;;;;;;;5.86;62.83;98021.22;10371785;28;20046;-81
2022/02/19 11:46:39;;;;;;;2.55;0.90;;;;;;;5.74;62.49;98019.66;10358309;28;20046;-81
2022/02/19 11:51:44;;;;;;;3.33;1.00;;;;;;;5.84;62.21;98038.41;10358567;28;20034;-81
2022/02/19 11:57:14;;;;;;;2.72;1.00;;;;;;;6.07;66.12;98033.63;10354528;28;20049;-81
2022/02/19 12:02:23;;;;;;;3.88;0.90;;;;;;;6.25;64.02;98032.91;10376918;28;20051;-80
2022/02/19 12:07:28;;;;;;;3.35;1.08;;;;;;;5.92;59.49;98083.16;10349744;28;20046;-80
2022/02/19 12:12:51;;;;;;;2.17;1.00;;;;;;;5.93;61.57;98034.03;10341469;28;20042;-81
2022/02/19 12:17:54;;;;;;;3.75;0.98;;;;;;;5.91;61.38;98046.69;10365602;28;20038;-79
2022/02/19 12:23:02;;;;;;;1.58;0.85;;;;;;;5.86;60.84;98058.66;10376951;28;20115;-80
2022/02/19 12:28:17;;;;;;;2.88;0.90;;;;;;;5.87;59.74;98043.47;10379574;28;20041;-81
2022/02/19 12:33:28;;;;;;;3.88;0.93;;;;;;;5.94;59.84;98049.94;10380982;28;20057;-80
2022/02/19 12:38:33;;;;;;;2.95;0.90;;;;;;;6.25;62.53;98022.19;10370882;28;20027;-79
2022/02/19 12:43:36;;;;;;;1.83;0.70;;;;;;;6.11;57.25;98029.69;10354952;28;20053;-79
2022/02/19 12:48:41;;;;;;;2.85;0.93;;;;;;;5.98;58.23;98050.47;10345739;28;20038;-81
2022/02/19 12:53:46;;;;;;;2.25;0.73;;;;;;;6.23;58.84;98035.72;10351694;28;20042;-81
2022/02/19 12:58:50;;;;;;;3.72;0.90;;;;;;;6.17;57.80;98020.25;10352692;28;20041;-79
2022/02/19 13:03:53;;;;;;;2.72;0.77;;;;;;;6.40;58.12;98023.44;10348977;28;20562;-80
2022/02/19 13:09:02;;;;;;;2.72;0.90;;;;;;;6.26;56.96;98007.84;10347024;28;20086;-83
2022/02/19 13:14:05;;;;;;;2.55;0.80;;;;;;;6.24;58.01;97999.13;10343663;28;20500;-81
2022/02/19 13:19:08;;;;;;;3.25;1.00;;;;;;;6.43;57.39;98019.63;10343158;28;20113;-81
2022/02/19 13:24:18;;;;;;;5.45;0.98;;;;;;;6.48;56.26;98001.28;10361989;28;20052;-81
2022/02/19 13:29:24;;;;;;;2.47;0.90;;;;;;;6.54;56.57;98006.06;10345111;28;20057;-81
2022/02/19 13:34:28;;;;;;;3.17;0.80;;;;;;;6.71;55.57;98023.19;10355953;28;20057;-80
2022/02/19 13:39:38;;;;;;;2.50;0.75;;;;;;;7.25;56.22;98014.47;10355109;28;20057;-81
2022/02/19 13:44:46;;;;;;;2.00;0.90;;;;;;;7.38;55.91;98003.41;10355384;28;20502;-79
2022/02/19 13:49:51;;;;;;;2.58;1.05;;;;;;;7.49;56.46;98015.72;10337231;28;20450;-81
2022/02/19 13:55:11;;;;;;;2.97;0.95;;;;;;;7.29;54.91;98015.88;10348810;28;20084;-82
2022/02/19 14:00:18;;;;;;;5.25;1.13;;;;;;;7.20;54.75;98022.97;10337546;28;20101;-82
2022/02/19 14:05:21;;;;;;;3.22;1.20;;;;;;;6.92;53.15;98033.69;10357814;28;20084;-82
2022/02/19 14:10:27;;;;;;;2.13;0.80;;;;;;;7.12;55.49;98036.28;10339244;28;20073;-82
2022/02/19 14:15:35;;;;;;;1.65;0.80;;;;;;;7.12;54.34;98030.06;10328942;28;20514;-81
2022/02/19 14:20:40;;;;;;;2.85;0.80;;;;;;;7.29;52.70;98042.66;10350526;28;20521;-81
2022/02/19 14:25:46;;;;;;;2.03;0.93;;;;;;;6.96;53.22;98052.97;10336551;28;20505;-81
2022/02/19 14:30:52;;;;;;;4.82;1.10;;;;;;;6.83;52.69;98053.28;10347560;28;20044;-81
2022/02/19 14:35:58;;;;;;;3.03;0.80;;;;;;;6.77;54.63;98054.72;10361889;28;20038;-81
2022/02/19 14:41:05;;;;;;;1.77;0.80;;;;;;;6.59;54.97;98051.97;10348909;28;20110;-82
2022/02/19 14:46:08;;;;;;;3.38;1.00;;;;;;;6.65;56.90;98058.56;10394997;28;20043;-81
2022/02/19 14:51:11;;;;;;;1.92;0.68;;;;;;;6.59;54.05;98051.13;10354779;28;20106;-79
2022/02/19 14:56:16;;;;;;;3.08;1.05;;;;;;;6.84;57.65;98054.16;10366128;28;20073;-80
2022/02/19 15:01:19;;;;;;;3.20;1.00;;;;;;;6.73;57.39;98048.00;10363337;28;20062;-79
2022/02/19 15:06:23;;;;;;;2.20;0.90;;;;;;;6.77;56.35;98062.75;10356237;28;20159;-79
2022/02/19 15:11:27;;;;;;;2.15;0.80;;;;;;;7.12;55.34;98065.75;10362005;28;20108;-80
2022/02/19 15:16:32;;;;;;;2.85;0.90;;;;;;;7.06;53.84;98091.28;10358641;28;20056;-80
2022/02/19 15:21:34;;;;;;;1.90;0.70;;;;;;;7.15;54.53;98086.03;10352561;28;20050;-80
2022/02/19 15:26:39;;;;;;;3.20;1.05;;;;;;;7.19;54.23;98082.06;10348737;28;20066;-80
2022/02/19 15:31:42;;;;;;;2.35;0.80;;;;;;;7.02;57.34;98078.34;10367825;28;20122;-80
2022/02/19 15:36:47;;;;;;;2.63;0.90;;;;;;;7.04;55.19;98071.81;10353660;28;20081;-81
2022/02/19 15:41:52;;;;;;;1.15;0.63;;;;;;;6.75;54.77;98063.91;10352389;28;20052;-81
2022/02/19 15:46:56;;;;;;;3.13;0.90;;;;;;;6.52;56.89;98076.81;10350438;28;20061;-81
2022/02/19 15:51:58;;;;;;;2.38;0.88;;;;;;;6.28;58.21;98076.25;10355369;28;20050;-83
2022/02/19 15:57:04;;;;;;;2.50;0.90;;;;;;;6.23;60.86;98083.88;10340007;28;20405;-81
2022/02/19 16:02:07;;;;;;;4.20;1.23;;;;;;;6.24;59.19;98082.88;10368866;28;20057;-80
2022/02/19 16:07:10;;;;;;;3.03;1.02;;;;;;;6.38;59.53;98065.56;10390611;28;20045;-82
2022/02/19 16:12:22;;;;;;;3.17;0.80;;;;;;;6.42;56.19;98066.94;10385283;28;20042;-82
2022/02/19 16:17:31;;;;;;;5.57;0.98;;;;;;;6.42;57.07;98071.44;10397261;28;20487;-83
2022/02/19 16:22:34;;;;;;;2.50;0.95;;;;;;;6.30;58.23;98062.72;10387394;28;20060;-81
2022/02/19 16:27:40;;;;;;;2.17;0.90;;;;;;;6.21;57.71;98048.41;10382881;28;20048;-81
2022/02/19 16:32:45;;;;;;;3.67;1.05;;;;;;;5.97;61.24;98057.69;10383019;28;20049;-83
2022/02/19 16:37:50;;;;;;;3.55;1.00;;;;;;;5.82;63.85;98059.91;10385100;28;20209;-81
2022/02/19 16:42:58;;;;;;;1.98;0.80;;;;;;;5.68;61.82;98071.03;10392974;28;20104;-83
2022/02/19 16:48:02;;;;;;;2.80;0.90;;;;;;;5.52;64.55;98069.72;10414196;28;20164;-84
2022/02/19 16:53:06;;;;;;;4.10;1.02;;;;;;;5.36;67.26;98080.94;10411635;28;20053;-81
2022/02/19 16:58:12;;;;;;;3.10;1.10;;;;;;;5.14;72.44;98090.00;10396123;28;20057;-83
2022/02/19 17:03:16;;;;;;;3.42;1.00;;;;;;;5.10;68.71;98083.25;10401013;28;20046;-81
2022/02/19 17:08:20;;;;;;;3.35;1.10;;;;;;;5.09;70.49;98078.91;10414966;28;20046;-79
2022/02/19 17:13:25;;;;;;;3.17;0.90;;;;;;;5.03;75.23;98085.63;10398283;28;20070;-82
2022/02/19 17:18:29;;;;;;;4.13;1.00;;;;;;;4.93;81.56;98079.41;10398025;28;20128;-81
2022/02/19 17:23:33;;;;;;;5.90;1.00;;;;;;;4.78;88.31;98092.22;10384262;28;20045;-83
2022/02/19 17:28:37;;;;;;;1.77;0.88;;;;;;;4.70;95.08;98103.59;10393315;28;20046;-82
2022/02/19 17:33:43;;;;;;;4.13;1.10;;;;;;;4.58;99.46;98102.81;10393316;28;20117;-79
2022/02/19 17:38:47;;;;;;;3.17;0.93;;;;;;;4.46;100.00;98102.06;10411392;28;20104;-81
2022/02/19 17:43:52;;;;;;;2.47;0.80;;;;;;;4.43;100.00;98104.09;10378364;28;20107;-81
2022/02/19 17:48:55;;;;;;;3.33;0.90;;;;;;;4.31;100.00;98090.84;10383975;28;20045;-81
2022/02/19 17:53:58;;;;;;;3.95;1.13;;;;;;;4.30;100.00;98088.31;10381612;28;20474;-81
2022/02/19 17:59:03;;;;;;;4.43;1.30;;;;;;;4.23;100.00;98101.31;10379284;28;20582;-82
2022/02/19 18:04:07;;;;;;;4.40;1.17;;;;;;;4.18;100.00;98081.34;10378652;28;20037;-81
2022/02/19 18:09:10;;;;;;;4.95;1.30;;;;;;;4.13;100.00;98092.41;10385152;28;20405;-77
2022/02/19 18:14:15;;;;;;;5.38;1.10;;;;;;;4.04;100.00;98103.84;10401615;28;20413;-82
2022/02/19 18:19:21;;;;;;;3.78;1.10;;;;;;;3.96;100.00;98102.63;10399617;28;20053;-80
2022/02/19 18:24:24;;;;;;;4.88;1.10;;;;;;;3.93;100.00;98068.25;10396677;28;20057;-81
2022/02/19 18:29:29;;;;;;;5.35;1.20;;;;;;;3.90;100.00;98072.97;10401716;28;20049;-81
2022/02/19 18:34:32;;;;;;;3.28;0.95;;;;;;;3.89;100.00;98074.81;10407897;28;20054;-81
2022/02/19 18:39:36;;;;;;;4.97;1.15;;;;;;;3.87;100.00;98071.41;10386901;28;20046;-82
2022/02/19 18:44:40;;;;;;;5.60;1.20;;;;;;;3.89;100.00;98069.47;10391509;28;20132;-81
2022/02/19 18:49:45;;;;;;;5.63;0.90;;;;;;;3.92;100.00;98079.91;10397431;28;20477;-79
2022/02/19 18:54:48;;;;;;;4.40;1.10;;;;;;;3.93;100.00;98070.06;10385718;28;20073;-82
2022/02/19 19:00:13;;;;;;;4.72;1.20;;;;;;;3.92;100.00;98071.91;10395693;28;20883;-80
2022/02/19 19:05:17;;;;;;;3.25;1.20;;;;;;;3.93;100.00;98083.38;10395305;28;20137;-81
2022/02/19 19:10:20;;;;;;;3.40;1.10;;;;;;;3.91;100.00;98061.34;10386608;28;20046;-80
2022/02/19 19:15:31;;;;;;;3.47;1.00;;;;;;;3.90;100.00;98052.53;10405018;28;20530;-82
2022/02/19 19:20:34;;;;;;;5.18;1.27;;;;;;;4.03;100.00;98048.81;10418808;28;20070;-81
2022/02/19 19:25:38;;;;;;;3.95;1.23;;;;;;;4.04;100.00;98045.19;10400009;28;20510;-80
2022/02/19 19:30:44;;;;;;;5.00;1.20;;;;;;;4.04;100.00;98047.84;10397511;28;20038;-79
2022/02/19 19:35:48;;;;;;;3.33;1.00;;;;;;;3.98;100.00;98043.88;10384378;28;20070;-81
2022/02/19 19:40:57;;;;;;;5.53;1.30;;;;;;;3.97;100.00;98037.69;10409702;28;20132;-83
2022/02/19 19:46:02;;;;;;;3.42;1.20;;;;;;;3.96;100.00;98029.84;10405931;28;20529;-80
2022/02/19 19:51:05;;;;;;;6.55;1.23;;;;;;;3.92;100.00;98020.41;10380148;28;20100;-80
2022/02/19 19:56:13;;;;;;;5.15;1.40;;;;;;;3.88;100.00;98021.66;10391972;28;20133;-81
2022/02/19 20:01:21;;;;;;;3.70;1.63;;;;;;;3.85;100.00;97998.75;10385009;28;20503;-80
2022/02/19 20:06:26;;;;;;;4.65;1.27;;;;;;;3.76;100.00;97983.53;10389995;28;20093;-81
2022/02/19 20:11:31;;;;;;;6.88;1.58;;;;;;;3.72;100.00;97979.44;10402255;28;20044;-81
2022/02/19 20:16:35;;;;;;;3.65;1.13;;;;;;;3.68;100.00;97981.50;10391881;28;20098;-79
2022/02/19 20:21:39;;;;;;;4.28;1.50;;;;;;;3.68;100.00;97971.72;10442187;28;20052;-80
2022/02/19 20:26:43;;;;;;;4.15;1.38;;;;;;;3.72;100.00;97960.78;10376773;28;20069;-80
2022/02/19 20:31:48;;;;;;;5.95;1.40;;;;;;;3.66;100.00;97955.00;10383521;28;20109;-80
2022/02/19 20:36:51;;;;;;;4.32;1.60;;;;;;;3.68;100.00;97939.75;10376476;28;20068;-80
2022/02/19 20:41:54;;;;;;;3.30;1.20;;;;;;;3.74;100.00;97929.53;10388391;28;20049;-80
2022/02/19 20:46:59;;;;;;;5.47;1.50;;;;;;;3.85;100.00;97908.16;10393720;28;20437;-80
2022/02/19 20:52:02;;;;;;;3.10;1.10;;;;;;;3.94;100.00;97912.69;10378844;28;20448;-78
2022/02/19 20:57:06;;;;;;;4.78;1.30;;;;;;;3.93;100.00;97894.16;10387375;28;20050;-77
2022/02/19 21:02:11;;;;;;;4.40;1.50;;;;;;;3.94;100.00;97886.03;10380969;28;20042;-79
2022/02/19 21:07:14;;;;;;;4.35;1.33;;;;;;;3.99;100.00;97883.81;10382639;28;20381;-77
2022/02/19 21:12:17;;;;;;;4.60;1.80;;;;;;;4.05;100.00;97874.44;10379483;28;20041;-76
2022/02/19 21:17:24;;;;;;;4.15;1.40;;;;;;;4.07;100.00;97853.84;10373085;28;20092;-77
2022/02/19 21:22:27;;;;;;;3.42;1.27;;;;;;;4.09;100.00;97851.03;10376261;28;20049;-77
2022/02/19 21:27:34;;;;;;;4.15;1.20;;;;;;;4.14;100.00;97851.50;10376397;28;20096;-76
2022/02/19 21:32:40;;;;;;;4.47;1.38;;;;;;;4.15;100.00;97847.84;10377105;28;20165;-77
2022/02/19 21:37:44;;;;;;;5.43;1.50;;;;;;;4.19;100.00;97835.09;10375713;28;20050;-77
2022/02/19 21:42:48;;;;;;;3.92;1.30;;;;;;;4.20;100.00;97820.78;10373111;28;20128;-78
2022/02/19 21:47:53;;;;;;;4.40;1.20;;;;;;;4.24;100.00;97815.03;10367653;28;20092;-77
2022/02/19 21:52:56;;;;;;;5.13;1.30;;;;;;;4.28;100.00;97823.59;10389333;28;20109;-77
2022/02/19 21:57:59;;;;;;;2.63;1.13;;;;;;;4.30;100.00;97814.47;10373311;28;20053;-77
2022/02/19 22:03:04;;;;;;;4.75;1.15;;;;;;;4.35;100.00;97818.56;10381634;28;20141;-77
2022/02/19 22:08:07;;;;;;;5.63;1.17;;;;;;;4.36;100.00;97810.41;10375211;28;20073;-77
2022/02/19 22:13:10;;;;;;;3.15;1.20;;;;;;;4.37;100.00;97790.78;10377717;28;20034;-78
2022/02/19 22:18:17;;;;;;;3.72;1.30;;;;;;;4.38;100.00;97791.63;10390680;28;20437;-77
2022/02/19 22:23:20;;;;;;;4.55;1.52;;;;;;;4.39;100.00;97787.97;10384842;28;20120;-77
2022/02/19 22:28:23;;;;;;;5.80;1.40;;;;;;;4.42;100.00;97764.53;10381413;28;20050;-77
2022/02/19 22:33:28;;;;;;;3.72;1.00;;;;;;;4.57;100.00;97769.47;10391490;28;20490;-77
2022/02/19 22:38:31;;;;;;;2.83;1.05;;;;;;;4.65;100.00;97747.41;10383915;28;20128;-78
2022/02/19 22:43:34;;;;;;;3.72;1.30;;;;;;;4.64;100.00;97743.91;10377084;28;20069;-78
2022/02/19 22:48:39;;;;;;;3.95;0.82;;;;;;;4.70;100.00;97714.00;10371933;28;20038;-77
2022/02/19 22:53:42;;;;;;;4.60;1.23;;;;;;;4.71;100.00;97720.19;10374264;28;20052;-77
2022/02/19 22:58:45;;;;;;;4.53;0.85;;;;;;;4.70;100.00;97721.16;10387195;28;20149;-77
2022/02/19 23:09:11;;;;;;;3.47;0.90;;;;;;;4.59;100.00;97695.47;10407132;28;20081;-78
2022/02/19 23:14:15;;;;;;;1.88;0.90;;;;;;;4.47;100.00;97684.09;10401137;28;20046;-80
2022/02/19 23:19:20;;;;;;;3.60;0.93;;;;;;;4.34;100.00;97664.88;10407126;28;20049;-78
2022/02/19 23:24:23;;;;;;;5.05;1.33;;;;;;;4.30;100.00;97667.00;10387386;28;20050;-77
2022/02/19 23:29:27;;;;;;;2.53;1.00;;;;;;;4.21;100.00;97657.16;10384888;28;20092;-79
2022/02/19 23:34:32;;;;;;;2.53;0.85;;;;;;;4.13;100.00;97629.38;10381155;28;20045;-79
2022/02/19 23:39:35;;;;;;;4.35;0.95;;;;;;;4.08;100.00;97628.97;10385167;28;20037;-77
2022/02/19 23:44:38;;;;;;;3.42;0.90;;;;;;;4.05;100.00;97605.25;10388219;28;20049;-79
2022/02/19 23:49:43;;;;;;;4.70;1.10;;;;;;;3.93;100.00;97609.88;10378912;28;20053;-77
2022/02/19 23:54:46;;;;;;;5.43;1.30;;;;;;;3.90;100.00;97599.50;10375603;28;20065;-78
2022/02/19 23:59:49;;;;;;;4.90;1.15;;;;;;;3.84;100.00;97570.72;10401491;28;20045;-78
